sensor_id;sensor_type;location;lat;lon;timestamp;P1;durP1;ratioP1;P2;durP2;ratioP2
20705;SDS011;10514;49.468;11.044;2022-12-26T00:00:33;4.83;;;3.23;;
20705;SDS011;10514;49.468;11.044;2022-12-26T00:02:59;5.43;;;3.53;;
20705;SDS011;10514;49.468;11.044;2022-12-26T00:05:25;5.00;;;2.90;;
20705;SDS011;10514;49.468;11.044;2022-12-26T00:07:51;4.60;;;2.88;;
20705;SDS011;10514;49.468;11.044;2022-12-26T00:10:17;6.17;;;2.90;;
20705;SDS011;10514;49.468;11.044;2022-12-26T00:12:43;4.20;;;2.93;;
20705;SDS011;10514;49.468;11.044;2022-12-26T00:15:09;6.23;;;3.10;;
20705;SDS011;10514;49.468;11.044;2022-12-26T00:17:35;4.93;;;3.23;;
20705;SDS011;10514;49.468;11.044;2022-12-26T00:20:01;3.20;;;2.47;;
20705;SDS011;10514;49.468;11.044;2022-12-26T00:22:27;5.53;;;2.55;;
20705;SDS011;10514;49.468;11.044;2022-12-26T00:24:53;3.60;;;2.73;;
20705;SDS011;10514;49.468;11.044;2022-12-26T00:27:19;4.60;;;2.67;;
20705;SDS011;10514;49.468;11.044;2022-12-26T00:29:46;6.65;;;3.00;;
20705;SDS011;10514;49.468;11.044;2022-12-26T00:32:12;4.88;;;2.60;;
20705;SDS011;10514;49.468;11.044;2022-12-26T00:34:38;5.32;;;2.63;;
20705;SDS011;10514;49.468;11.044;2022-12-26T00:37:03;3.45;;;2.30;;
20705;SDS011;10514;49.468;11.044;2022-12-26T00:39:30;4.77;;;2.57;;
20705;SDS011;10514;49.468;11.044;2022-12-26T00:41:56;6.90;;;2.88;;
20705;SDS011;10514;49.468;11.044;2022-12-26T00:44:22;5.47;;;3.20;;
20705;SDS011;10514;49.468;11.044;2022-12-26T00:46:48;4.40;;;2.55;;
20705;SDS011;10514;49.468;11.044;2022-12-26T00:49:14;4.40;;;2.70;;
20705;SDS011;10514;49.468;11.044;2022-12-26T00:51:39;9.80;;;2.70;;
20705;SDS011;10514;49.468;11.044;2022-12-26T00:54:05;3.27;;;2.47;;
20705;SDS011;10514;49.468;11.044;2022-12-26T00:56:31;3.40;;;2.33;;
20705;SDS011;10514;49.468;11.044;2022-12-26T00:58:57;4.27;;;2.63;;
20705;SDS011;10514;49.468;11.044;2022-12-26T01:01:23;6.50;;;2.70;;
20705;SDS011;10514;49.468;11.044;2022-12-26T01:03:49;3.72;;;2.45;;
20705;SDS011;10514;49.468;11.044;2022-12-26T01:06:16;3.30;;;2.38;;
20705;SDS011;10514;49.468;11.044;2022-12-26T01:08:42;3.88;;;2.63;;
20705;SDS011;10514;49.468;11.044;2022-12-26T01:11:09;3.20;;;2.20;;
20705;SDS011;10514;49.468;11.044;2022-12-26T01:13:36;3.05;;;2.22;;
20705;SDS011;10514;49.468;11.044;2022-12-26T01:16:03;3.03;;;2.30;;
20705;SDS011;10514;49.468;11.044;2022-12-26T01:18:30;3.90;;;2.40;;
20705;SDS011;10514;49.468;11.044;2022-12-26T01:20:56;2.85;;;2.30;;
20705;SDS011;10514;49.468;11.044;2022-12-26T01:23:22;2.87;;;2.03;;
20705;SDS011;10514;49.468;11.044;2022-12-26T01:25:48;3.55;;;2.40;;
20705;SDS011;10514;49.468;11.044;2022-12-26T01:28:14;4.25;;;2.45;;
20705;SDS011;10514;49.468;11.044;2022-12-26T01:30:40;3.97;;;2.42;;
20705;SDS011;10514;49.468;11.044;2022-12-26T01:33:06;2.78;;;1.80;;
20705;SDS011;10514;49.468;11.044;2022-12-26T01:35:32;6.65;;;2.40;;
20705;SDS011;10514;49.468;11.044;2022-12-26T01:37:58;2.95;;;2.20;;
20705;SDS011;10514;49.468;11.044;2022-12-26T01:40:24;2.97;;;2.13;;
20705;SDS011;10514;49.468;11.044;2022-12-26T01:42:50;5.07;;;2.13;;
20705;SDS011;10514;49.468;11.044;2022-12-26T01:47:46;6.47;;;2.50;;
20705;SDS011;10514;49.468;11.044;2022-12-26T01:50:57;3.05;;;2.30;;
20705;SDS011;10514;49.468;11.044;2022-12-26T01:53:11;3.83;;;2.50;;
20705;SDS011;10514;49.468;11.044;2022-12-26T01:55:39;3.05;;;2.00;;
20705;SDS011;10514;49.468;11.044;2022-12-26T01:58:08;4.63;;;1.95;;
20705;SDS011;10514;49.468;11.044;2022-12-26T02:00:35;4.70;;;2.10;;
20705;SDS011;10514;49.468;11.044;2022-12-26T02:03:01;3.90;;;2.70;;
20705;SDS011;10514;49.468;11.044;2022-12-26T02:05:46;5.03;;;2.60;;
20705;SDS011;10514;49.468;11.044;2022-12-26T02:08:16;3.63;;;2.53;;
20705;SDS011;10514;49.468;11.044;2022-12-26T02:11:02;5.63;;;2.33;;
20705;SDS011;10514;49.468;11.044;2022-12-26T02:13:29;4.87;;;2.70;;
20705;SDS011;10514;49.468;11.044;2022-12-26T02:15:56;3.43;;;2.53;;
20705;SDS011;10514;49.468;11.044;2022-12-26T02:18:21;4.20;;;2.40;;
20705;SDS011;10514;49.468;11.044;2022-12-26T02:26:02;7.13;;;3.10;;
20705;SDS011;10514;49.468;11.044;2022-12-26T02:28:35;5.53;;;2.70;;
20705;SDS011;10514;49.468;11.044;2022-12-26T02:31:30;3.23;;;2.00;;
20705;SDS011;10514;49.468;11.044;2022-12-26T02:34:03;4.18;;;2.45;;
20705;SDS011;10514;49.468;11.044;2022-12-26T02:36:41;2.58;;;2.35;;
20705;SDS011;10514;49.468;11.044;2022-12-26T02:39:37;2.58;;;2.30;;
20705;SDS011;10514;49.468;11.044;2022-12-26T02:42:20;3.70;;;2.20;;
20705;SDS011;10514;49.468;11.044;2022-12-26T02:50:55;3.67;;;2.20;;
20705;SDS011;10514;49.468;11.044;2022-12-26T02:53:49;4.50;;;3.03;;
20705;SDS011;10514;49.468;11.044;2022-12-26T02:56:41;6.70;;;2.63;;
20705;SDS011;10514;49.468;11.044;2022-12-26T02:59:31;3.23;;;2.30;;
20705;SDS011;10514;49.468;11.044;2022-12-26T03:02:31;2.87;;;2.40;;
20705;SDS011;10514;49.468;11.044;2022-12-26T03:05:19;3.33;;;2.50;;
20705;SDS011;10514;49.468;11.044;2022-12-26T03:08:05;3.57;;;2.40;;
20705;SDS011;10514;49.468;11.044;2022-12-26T03:10:53;4.50;;;2.53;;
20705;SDS011;10514;49.468;11.044;2022-12-26T03:13:39;6.47;;;2.53;;
20705;SDS011;10514;49.468;11.044;2022-12-26T03:16:08;3.17;;;2.30;;
20705;SDS011;10514;49.468;11.044;2022-12-26T03:18:54;5.50;;;2.40;;
20705;SDS011;10514;49.468;11.044;2022-12-26T03:21:24;3.80;;;2.23;;
20705;SDS011;10514;49.468;11.044;2022-12-26T03:23:51;2.10;;;1.90;;
20705;SDS011;10514;49.468;11.044;2022-12-26T03:26:20;2.83;;;2.20;;
20705;SDS011;10514;49.468;11.044;2022-12-26T03:29:09;2.83;;;1.93;;
20705;SDS011;10514;49.468;11.044;2022-12-26T03:31:55;3.40;;;2.73;;
20705;SDS011;10514;49.468;11.044;2022-12-26T03:34:21;3.90;;;2.50;;
20705;SDS011;10514;49.468;11.044;2022-12-26T03:36:50;3.07;;;2.37;;
20705;SDS011;10514;49.468;11.044;2022-12-26T03:42:09;4.23;;;2.30;;
20705;SDS011;10514;49.468;11.044;2022-12-26T03:44:59;6.07;;;2.50;;
20705;SDS011;10514;49.468;11.044;2022-12-26T03:47:57;4.80;;;2.50;;
20705;SDS011;10514;49.468;11.044;2022-12-26T03:50:47;2.83;;;2.20;;
20705;SDS011;10514;49.468;11.044;2022-12-26T03:54:07;3.10;;;2.40;;
20705;SDS011;10514;49.468;11.044;2022-12-26T03:57:03;3.90;;;2.23;;
20705;SDS011;10514;49.468;11.044;2022-12-26T04:00:01;4.45;;;2.35;;
20705;SDS011;10514;49.468;11.044;2022-12-26T04:02:47;4.10;;;2.27;;
20705;SDS011;10514;49.468;11.044;2022-12-26T04:05:34;4.87;;;2.40;;
20705;SDS011;10514;49.468;11.044;2022-12-26T04:08:22;2.20;;;1.90;;
20705;SDS011;10514;49.468;11.044;2022-12-26T04:11:09;5.47;;;2.20;;
20705;SDS011;10514;49.468;11.044;2022-12-26T04:13:59;2.90;;;1.87;;
20705;SDS011;10514;49.468;11.044;2022-12-26T04:17:02;5.13;;;2.50;;
20705;SDS011;10514;49.468;11.044;2022-12-26T04:20:07;3.73;;;2.67;;
20705;SDS011;10514;49.468;11.044;2022-12-26T04:25:23;4.07;;;2.33;;
20705;SDS011;10514;49.468;11.044;2022-12-26T04:28:10;2.90;;;2.30;;
20705;SDS011;10514;49.468;11.044;2022-12-26T04:30:59;3.27;;;2.30;;
20705;SDS011;10514;49.468;11.044;2022-12-26T04:33:51;3.95;;;2.60;;
20705;SDS011;10514;49.468;11.044;2022-12-26T04:36:44;3.37;;;2.07;;
20705;SDS011;10514;49.468;11.044;2022-12-26T04:39:31;4.07;;;1.98;;
20705;SDS011;10514;49.468;11.044;2022-12-26T04:42:17;2.00;;;1.70;;
20705;SDS011;10514;49.468;11.044;2022-12-26T04:45:03;4.88;;;2.00;;
20705;SDS011;10514;49.468;11.044;2022-12-26T04:47:30;2.87;;;2.07;;
20705;SDS011;10514;49.468;11.044;2022-12-26T04:49:57;3.83;;;1.90;;
20705;SDS011;10514;49.468;11.044;2022-12-26T04:52:41;2.60;;;2.20;;
20705;SDS011;10514;49.468;11.044;2022-12-26T04:55:23;3.05;;;2.10;;
20705;SDS011;10514;49.468;11.044;2022-12-26T04:57:51;5.65;;;2.28;;
20705;SDS011;10514;49.468;11.044;2022-12-26T05:00:17;3.10;;;2.20;;
20705;SDS011;10514;49.468;11.044;2022-12-26T05:02:43;4.40;;;2.20;;
20705;SDS011;10514;49.468;11.044;2022-12-26T05:05:36;2.75;;;1.77;;
20705;SDS011;10514;49.468;11.044;2022-12-26T05:08:22;2.72;;;1.90;;
20705;SDS011;10514;49.468;11.044;2022-12-26T05:11:08;3.03;;;1.77;;
20705;SDS011;10514;49.468;11.044;2022-12-26T05:13:34;3.08;;;2.03;;
20705;SDS011;10514;49.468;11.044;2022-12-26T05:15:59;5.03;;;2.40;;
20705;SDS011;10514;49.468;11.044;2022-12-26T05:18:44;3.17;;;2.00;;
20705;SDS011;10514;49.468;11.044;2022-12-26T05:21:29;3.07;;;2.00;;
20705;SDS011;10514;49.468;11.044;2022-12-26T05:24:13;3.05;;;1.92;;
20705;SDS011;10514;49.468;11.044;2022-12-26T05:26:58;2.65;;;2.05;;
20705;SDS011;10514;49.468;11.044;2022-12-26T05:29:42;5.27;;;2.40;;
20705;SDS011;10514;49.468;11.044;2022-12-26T05:32:08;3.57;;;2.03;;
20705;SDS011;10514;49.468;11.044;2022-12-26T05:34:34;2.97;;;2.00;;
20705;SDS011;10514;49.468;11.044;2022-12-26T05:37:00;3.28;;;1.85;;
20705;SDS011;10514;49.468;11.044;2022-12-26T05:39:26;1.95;;;1.58;;
20705;SDS011;10514;49.468;11.044;2022-12-26T05:41:52;2.38;;;1.77;;
20705;SDS011;10514;49.468;11.044;2022-12-26T05:44:18;3.47;;;1.90;;
20705;SDS011;10514;49.468;11.044;2022-12-26T05:46:44;4.90;;;2.10;;
20705;SDS011;10514;49.468;11.044;2022-12-26T05:49:10;4.07;;;2.00;;
20705;SDS011;10514;49.468;11.044;2022-12-26T05:51:37;4.03;;;2.08;;
20705;SDS011;10514;49.468;11.044;2022-12-26T05:54:02;3.20;;;2.05;;
20705;SDS011;10514;49.468;11.044;2022-12-26T05:56:28;3.08;;;1.80;;
20705;SDS011;10514;49.468;11.044;2022-12-26T05:58:55;4.30;;;1.77;;
20705;SDS011;10514;49.468;11.044;2022-12-26T06:01:22;3.75;;;1.65;;
20705;SDS011;10514;49.468;11.044;2022-12-26T06:03:49;2.47;;;1.75;;
20705;SDS011;10514;49.468;11.044;2022-12-26T06:06:16;1.95;;;1.60;;
20705;SDS011;10514;49.468;11.044;2022-12-26T06:08:42;4.28;;;1.73;;
20705;SDS011;10514;49.468;11.044;2022-12-26T06:11:09;2.33;;;1.80;;
20705;SDS011;10514;49.468;11.044;2022-12-26T06:13:36;5.30;;;1.80;;
20705;SDS011;10514;49.468;11.044;2022-12-26T06:16:06;2.80;;;1.80;;
20705;SDS011;10514;49.468;11.044;2022-12-26T06:18:32;3.17;;;1.75;;
20705;SDS011;10514;49.468;11.044;2022-12-26T06:20:58;2.17;;;1.73;;
20705;SDS011;10514;49.468;11.044;2022-12-26T06:23:24;2.22;;;1.42;;
20705;SDS011;10514;49.468;11.044;2022-12-26T06:25:54;2.95;;;1.80;;
20705;SDS011;10514;49.468;11.044;2022-12-26T06:28:20;2.70;;;1.75;;
20705;SDS011;10514;49.468;11.044;2022-12-26T06:30:46;2.92;;;1.58;;
20705;SDS011;10514;49.468;11.044;2022-12-26T06:33:12;2.72;;;2.03;;
20705;SDS011;10514;49.468;11.044;2022-12-26T06:35:37;2.60;;;1.65;;
20705;SDS011;10514;49.468;11.044;2022-12-26T06:38:03;5.15;;;1.80;;
20705;SDS011;10514;49.468;11.044;2022-12-26T06:40:29;2.40;;;1.33;;
20705;SDS011;10514;49.468;11.044;2022-12-26T06:42:55;2.80;;;1.48;;
20705;SDS011;10514;49.468;11.044;2022-12-26T06:45:21;1.92;;;1.48;;
20705;SDS011;10514;49.468;11.044;2022-12-26T06:47:47;3.55;;;1.98;;
20705;SDS011;10514;49.468;11.044;2022-12-26T06:50:13;4.88;;;2.15;;
20705;SDS011;10514;49.468;11.044;2022-12-26T06:52:39;3.33;;;2.15;;
20705;SDS011;10514;49.468;11.044;2022-12-26T06:55:05;2.13;;;1.70;;
20705;SDS011;10514;49.468;11.044;2022-12-26T06:57:31;5.60;;;2.35;;
20705;SDS011;10514;49.468;11.044;2022-12-26T06:59:57;2.75;;;2.10;;
20705;SDS011;10514;49.468;11.044;2022-12-26T07:02:23;3.00;;;1.80;;
20705;SDS011;10514;49.468;11.044;2022-12-26T07:04:49;3.97;;;2.03;;
20705;SDS011;10514;49.468;11.044;2022-12-26T07:07:15;3.67;;;2.35;;
20705;SDS011;10514;49.468;11.044;2022-12-26T07:09:40;4.07;;;2.33;;
20705;SDS011;10514;49.468;11.044;2022-12-26T07:12:06;5.32;;;2.10;;
20705;SDS011;10514;49.468;11.044;2022-12-26T07:14:32;3.50;;;2.30;;
20705;SDS011;10514;49.468;11.044;2022-12-26T07:16:58;2.60;;;1.88;;
20705;SDS011;10514;49.468;11.044;2022-12-26T07:19:24;3.38;;;1.95;;
20705;SDS011;10514;49.468;11.044;2022-12-26T07:21:50;4.47;;;1.90;;
20705;SDS011;10514;49.468;11.044;2022-12-26T07:24:20;3.92;;;2.40;;
20705;SDS011;10514;49.468;11.044;2022-12-26T07:26:46;2.40;;;1.92;;
20705;SDS011;10514;49.468;11.044;2022-12-26T07:29:13;3.05;;;1.80;;
20705;SDS011;10514;49.468;11.044;2022-12-26T07:31:39;3.17;;;1.70;;
20705;SDS011;10514;49.468;11.044;2022-12-26T07:34:05;3.92;;;2.03;;
20705;SDS011;10514;49.468;11.044;2022-12-26T07:36:31;2.90;;;2.10;;
20705;SDS011;10514;49.468;11.044;2022-12-26T07:38:57;2.35;;;1.55;;
20705;SDS011;10514;49.468;11.044;2022-12-26T07:41:23;2.60;;;1.50;;
20705;SDS011;10514;49.468;11.044;2022-12-26T07:44:08;2.67;;;1.70;;
20705;SDS011;10514;49.468;11.044;2022-12-26T07:46:34;2.80;;;1.58;;
20705;SDS011;10514;49.468;11.044;2022-12-26T07:49:00;3.80;;;1.75;;
20705;SDS011;10514;49.468;11.044;2022-12-26T07:51:26;2.78;;;1.58;;
20705;SDS011;10514;49.468;11.044;2022-12-26T07:53:52;2.50;;;1.65;;
20705;SDS011;10514;49.468;11.044;2022-12-26T07:56:18;2.97;;;1.80;;
20705;SDS011;10514;49.468;11.044;2022-12-26T07:58:47;7.15;;;1.80;;
20705;SDS011;10514;49.468;11.044;2022-12-26T08:01:13;3.13;;;1.88;;
20705;SDS011;10514;49.468;11.044;2022-12-26T08:03:39;3.65;;;1.90;;
20705;SDS011;10514;49.468;11.044;2022-12-26T08:06:04;3.05;;;1.50;;
20705;SDS011;10514;49.468;11.044;2022-12-26T08:08:31;3.38;;;1.73;;
20705;SDS011;10514;49.468;11.044;2022-12-26T08:10:57;3.33;;;2.00;;
20705;SDS011;10514;49.468;11.044;2022-12-26T08:13:24;5.00;;;1.98;;
20705;SDS011;10514;49.468;11.044;2022-12-26T08:15:50;2.60;;;1.90;;
20705;SDS011;10514;49.468;11.044;2022-12-26T08:18:16;2.95;;;2.10;;
20705;SDS011;10514;49.468;11.044;2022-12-26T08:20:41;2.97;;;1.92;;
20705;SDS011;10514;49.468;11.044;2022-12-26T08:23:07;3.63;;;2.50;;
20705;SDS011;10514;49.468;11.044;2022-12-26T08:25:33;6.40;;;2.33;;
20705;SDS011;10514;49.468;11.044;2022-12-26T08:27:59;6.05;;;2.53;;
20705;SDS011;10514;49.468;11.044;2022-12-26T08:30:25;2.78;;;1.90;;
20705;SDS011;10514;49.468;11.044;2022-12-26T08:32:51;3.03;;;1.65;;
20705;SDS011;10514;49.468;11.044;2022-12-26T08:35:17;3.42;;;2.05;;
20705;SDS011;10514;49.468;11.044;2022-12-26T08:37:43;4.43;;;2.40;;
20705;SDS011;10514;49.468;11.044;2022-12-26T08:40:10;3.28;;;1.80;;
20705;SDS011;10514;49.468;11.044;2022-12-26T08:42:36;3.97;;;1.95;;
20705;SDS011;10514;49.468;11.044;2022-12-26T08:45:02;3.80;;;2.15;;
20705;SDS011;10514;49.468;11.044;2022-12-26T08:47:29;3.83;;;1.85;;
20705;SDS011;10514;49.468;11.044;2022-12-26T08:49:55;3.10;;;1.85;;
20705;SDS011;10514;49.468;11.044;2022-12-26T08:52:21;3.22;;;1.55;;
20705;SDS011;10514;49.468;11.044;2022-12-26T08:54:47;3.35;;;2.13;;
20705;SDS011;10514;49.468;11.044;2022-12-26T08:57:12;4.38;;;2.17;;
20705;SDS011;10514;49.468;11.044;2022-12-26T08:59:39;2.70;;;2.00;;
20705;SDS011;10514;49.468;11.044;2022-12-26T09:02:05;2.65;;;1.80;;
20705;SDS011;10514;49.468;11.044;2022-12-26T09:04:31;2.75;;;2.00;;
20705;SDS011;10514;49.468;11.044;2022-12-26T09:06:57;2.78;;;1.65;;
20705;SDS011;10514;49.468;11.044;2022-12-26T09:09:23;3.55;;;1.75;;
20705;SDS011;10514;49.468;11.044;2022-12-26T09:11:49;3.50;;;1.80;;
20705;SDS011;10514;49.468;11.044;2022-12-26T09:14:15;2.65;;;1.85;;
20705;SDS011;10514;49.468;11.044;2022-12-26T09:16:42;3.30;;;1.83;;
20705;SDS011;10514;49.468;11.044;2022-12-26T09:19:11;4.38;;;2.10;;
20705;SDS011;10514;49.468;11.044;2022-12-26T09:21:37;3.45;;;2.00;;
20705;SDS011;10514;49.468;11.044;2022-12-26T09:24:04;3.00;;;1.90;;
20705;SDS011;10514;49.468;11.044;2022-12-26T09:26:31;3.40;;;1.80;;
20705;SDS011;10514;49.468;11.044;2022-12-26T09:28:57;3.92;;;2.13;;
20705;SDS011;10514;49.468;11.044;2022-12-26T09:31:24;7.57;;;2.55;;
20705;SDS011;10514;49.468;11.044;2022-12-26T09:33:51;3.50;;;1.95;;
20705;SDS011;10514;49.468;11.044;2022-12-26T09:36:25;2.90;;;1.80;;
20705;SDS011;10514;49.468;11.044;2022-12-26T09:38:53;4.30;;;1.88;;
20705;SDS011;10514;49.468;11.044;2022-12-26T09:41:27;3.45;;;2.20;;
20705;SDS011;10514;49.468;11.044;2022-12-26T09:44:37;3.33;;;2.20;;
20705;SDS011;10514;49.468;11.044;2022-12-26T09:50:26;2.90;;;2.08;;
20705;SDS011;10514;49.468;11.044;2022-12-26T09:57:54;5.47;;;2.13;;
20705;SDS011;10514;49.468;11.044;2022-12-26T10:00:27;2.97;;;2.13;;
20705;SDS011;10514;49.468;11.044;2022-12-26T10:02:54;5.93;;;1.85;;
20705;SDS011;10514;49.468;11.044;2022-12-26T10:05:31;10.68;;;2.40;;
20705;SDS011;10514;49.468;11.044;2022-12-26T10:08:00;4.47;;;1.92;;
20705;SDS011;10514;49.468;11.044;2022-12-26T10:10:30;3.63;;;2.67;;
20705;SDS011;10514;49.468;11.044;2022-12-26T10:15:50;3.38;;;2.35;;
20705;SDS011;10514;49.468;11.044;2022-12-26T10:18:31;5.93;;;3.35;;
20705;SDS011;10514;49.468;11.044;2022-12-26T10:23:59;6.90;;;4.10;;
20705;SDS011;10514;49.468;11.044;2022-12-26T10:26:29;6.53;;;4.15;;
20705;SDS011;10514;49.468;11.044;2022-12-26T10:29:03;3.60;;;2.83;;
20705;SDS011;10514;49.468;11.044;2022-12-26T10:36:48;5.03;;;2.97;;
20705;SDS011;10514;49.468;11.044;2022-12-26T10:39:20;5.97;;;3.00;;
20705;SDS011;10514;49.468;11.044;2022-12-26T10:41:51;8.00;;;2.92;;
20705;SDS011;10514;49.468;11.044;2022-12-26T10:44:17;9.77;;;3.22;;
20705;SDS011;10514;49.468;11.044;2022-12-26T10:46:53;5.28;;;3.03;;
20705;SDS011;10514;49.468;11.044;2022-12-26T10:49:21;4.50;;;3.20;;
20705;SDS011;10514;49.468;11.044;2022-12-26T10:51:48;4.78;;;3.20;;
20705;SDS011;10514;49.468;11.044;2022-12-26T10:54:15;5.95;;;3.53;;
20705;SDS011;10514;49.468;11.044;2022-12-26T10:56:43;8.25;;;3.97;;
20705;SDS011;10514;49.468;11.044;2022-12-26T10:59:13;3.63;;;2.63;;
20705;SDS011;10514;49.468;11.044;2022-12-26T11:01:40;4.35;;;3.28;;
20705;SDS011;10514;49.468;11.044;2022-12-26T11:06:40;6.38;;;3.65;;
20705;SDS011;10514;49.468;11.044;2022-12-26T11:09:19;4.70;;;3.40;;
20705;SDS011;10514;49.468;11.044;2022-12-26T11:11:47;4.32;;;2.78;;
20705;SDS011;10514;49.468;11.044;2022-12-26T11:14:26;5.13;;;2.47;;
20705;SDS011;10514;49.468;11.044;2022-12-26T11:16:53;4.93;;;3.67;;
20705;SDS011;10514;49.468;11.044;2022-12-26T11:19:27;7.53;;;3.33;;
20705;SDS011;10514;49.468;11.044;2022-12-26T11:22:41;4.50;;;2.95;;
20705;SDS011;10514;49.468;11.044;2022-12-26T11:24:41;4.65;;;3.00;;
20705;SDS011;10514;49.468;11.044;2022-12-26T11:27:15;6.25;;;2.80;;
20705;SDS011;10514;49.468;11.044;2022-12-26T11:29:41;5.75;;;2.90;;
20705;SDS011;10514;49.468;11.044;2022-12-26T11:32:12;5.20;;;2.78;;
20705;SDS011;10514;49.468;11.044;2022-12-26T11:34:40;4.57;;;2.60;;
20705;SDS011;10514;49.468;11.044;2022-12-26T11:37:26;4.65;;;2.65;;
20705;SDS011;10514;49.468;11.044;2022-12-26T11:39:53;4.18;;;2.58;;
20705;SDS011;10514;49.468;11.044;2022-12-26T11:42:21;3.63;;;2.42;;
20705;SDS011;10514;49.468;11.044;2022-12-26T11:44:48;4.80;;;2.28;;
20705;SDS011;10514;49.468;11.044;2022-12-26T11:47:17;4.32;;;2.33;;
20705;SDS011;10514;49.468;11.044;2022-12-26T11:54:55;3.80;;;1.90;;
20705;SDS011;10514;49.468;11.044;2022-12-26T11:57:26;2.95;;;1.95;;
20705;SDS011;10514;49.468;11.044;2022-12-26T11:59:52;2.47;;;1.98;;
20705;SDS011;10514;49.468;11.044;2022-12-26T12:02:21;2.22;;;1.70;;
20705;SDS011;10514;49.468;11.044;2022-12-26T12:04:48;5.80;;;1.95;;
20705;SDS011;10514;49.468;11.044;2022-12-26T12:09:44;2.65;;;1.70;;
20705;SDS011;10514;49.468;11.044;2022-12-26T12:12:17;4.25;;;1.65;;
20705;SDS011;10514;49.468;11.044;2022-12-26T12:14:56;3.08;;;1.73;;
20705;SDS011;10514;49.468;11.044;2022-12-26T12:17:48;2.80;;;1.75;;
20705;SDS011;10514;49.468;11.044;2022-12-26T12:20:22;2.90;;;1.70;;
20705;SDS011;10514;49.468;11.044;2022-12-26T12:23:14;3.22;;;2.08;;
20705;SDS011;10514;49.468;11.044;2022-12-26T12:25:52;3.05;;;1.48;;
20705;SDS011;10514;49.468;11.044;2022-12-26T12:36:24;3.25;;;1.38;;
20705;SDS011;10514;49.468;11.044;2022-12-26T12:39:01;1.30;;;1.05;;
20705;SDS011;10514;49.468;11.044;2022-12-26T12:41:41;2.03;;;1.20;;
20705;SDS011;10514;49.468;11.044;2022-12-26T12:44:15;2.97;;;1.33;;
20705;SDS011;10514;49.468;11.044;2022-12-26T12:54:57;1.50;;;1.23;;
20705;SDS011;10514;49.468;11.044;2022-12-26T12:57:30;3.38;;;1.30;;
20705;SDS011;10514;49.468;11.044;2022-12-26T13:05:37;1.95;;;1.27;;
20705;SDS011;10514;49.468;11.044;2022-12-26T13:08:02;2.85;;;1.55;;
20705;SDS011;10514;49.468;11.044;2022-12-26T13:10:30;1.95;;;1.00;;
20705;SDS011;10514;49.468;11.044;2022-12-26T13:12:57;1.63;;;1.13;;
20705;SDS011;10514;49.468;11.044;2022-12-26T13:15:34;1.67;;;1.10;;
20705;SDS011;10514;49.468;11.044;2022-12-26T13:18:02;3.03;;;1.05;;
20705;SDS011;10514;49.468;11.044;2022-12-26T13:23:04;1.25;;;0.88;;
20705;SDS011;10514;49.468;11.044;2022-12-26T13:26:02;1.55;;;0.95;;
20705;SDS011;10514;49.468;11.044;2022-12-26T13:28:29;1.05;;;0.80;;
20705;SDS011;10514;49.468;11.044;2022-12-26T13:30:57;0.95;;;0.88;;
20705;SDS011;10514;49.468;11.044;2022-12-26T13:33:22;0.95;;;0.80;;
20705;SDS011;10514;49.468;11.044;2022-12-26T13:35:58;1.15;;;0.90;;
20705;SDS011;10514;49.468;11.044;2022-12-26T13:41:15;1.52;;;0.85;;
20705;SDS011;10514;49.468;11.044;2022-12-26T13:48:59;2.08;;;1.20;;
20705;SDS011;10514;49.468;11.044;2022-12-26T13:54:25;1.60;;;0.90;;
20705;SDS011;10514;49.468;11.044;2022-12-26T13:56:58;1.15;;;0.95;;
20705;SDS011;10514;49.468;11.044;2022-12-26T14:00:14;1.88;;;0.88;;
20705;SDS011;10514;49.468;11.044;2022-12-26T14:05:13;1.55;;;1.00;;
20705;SDS011;10514;49.468;11.044;2022-12-26T14:07:49;2.38;;;1.10;;
20705;SDS011;10514;49.468;11.044;2022-12-26T14:10:23;1.85;;;1.30;;
20705;SDS011;10514;49.468;11.044;2022-12-26T14:13:04;1.58;;;0.70;;
20705;SDS011;10514;49.468;11.044;2022-12-26T14:18:34;1.52;;;0.82;;
20705;SDS011;10514;49.468;11.044;2022-12-26T14:23:57;1.20;;;1.00;;
20705;SDS011;10514;49.468;11.044;2022-12-26T14:42:15;2.80;;;1.15;;
20705;SDS011;10514;49.468;11.044;2022-12-26T14:45:00;2.28;;;0.85;;
20705;SDS011;10514;49.468;11.044;2022-12-26T14:47:44;1.75;;;1.20;;
20705;SDS011;10514;49.468;11.044;2022-12-26T14:58:50;4.22;;;1.20;;
20705;SDS011;10514;49.468;11.044;2022-12-26T15:01:41;2.38;;;1.10;;
20705;SDS011;10514;49.468;11.044;2022-12-26T15:09:08;2.65;;;0.90;;
20705;SDS011;10514;49.468;11.044;2022-12-26T15:11:47;3.37;;;1.13;;
20705;SDS011;10514;49.468;11.044;2022-12-26T15:14:25;4.03;;;0.90;;
20705;SDS011;10514;49.468;11.044;2022-12-26T15:27:26;1.97;;;1.10;;
20705;SDS011;10514;49.468;11.044;2022-12-26T15:30:13;1.65;;;1.10;;
20705;SDS011;10514;49.468;11.044;2022-12-26T15:33:03;1.17;;;0.98;;
20705;SDS011;10514;49.468;11.044;2022-12-26T15:35:45;1.70;;;1.00;;
20705;SDS011;10514;49.468;11.044;2022-12-26T15:38:39;2.10;;;1.40;;
20705;SDS011;10514;49.468;11.044;2022-12-26T15:41:13;1.30;;;1.20;;
20705;SDS011;10514;49.468;11.044;2022-12-26T15:44:07;2.73;;;1.20;;
20705;SDS011;10514;49.468;11.044;2022-12-26T15:46:44;1.95;;;1.13;;
20705;SDS011;10514;49.468;11.044;2022-12-26T16:02:13;1.92;;;1.38;;
20705;SDS011;10514;49.468;11.044;2022-12-26T16:04:52;1.83;;;1.40;;
20705;SDS011;10514;49.468;11.044;2022-12-26T16:07:23;2.78;;;1.23;;
20705;SDS011;10514;49.468;11.044;2022-12-26T16:09:52;2.10;;;1.50;;
20705;SDS011;10514;49.468;11.044;2022-12-26T16:12:26;2.73;;;1.30;;
20705;SDS011;10514;49.468;11.044;2022-12-26T16:15:00;2.15;;;1.35;;
20705;SDS011;10514;49.468;11.044;2022-12-26T16:17:26;1.73;;;1.17;;
20705;SDS011;10514;49.468;11.044;2022-12-26T16:19:52;2.37;;;1.40;;
20705;SDS011;10514;49.468;11.044;2022-12-26T16:22:24;2.63;;;1.40;;
20705;SDS011;10514;49.468;11.044;2022-12-26T16:25:20;2.83;;;1.40;;
20705;SDS011;10514;49.468;11.044;2022-12-26T16:27:47;2.57;;;1.23;;
20705;SDS011;10514;49.468;11.044;2022-12-26T16:30:15;2.23;;;1.43;;
20705;SDS011;10514;49.468;11.044;2022-12-26T16:32:44;1.73;;;1.17;;
20705;SDS011;10514;49.468;11.044;2022-12-26T16:35:20;1.63;;;1.53;;
20705;SDS011;10514;49.468;11.044;2022-12-26T16:37:56;2.53;;;1.30;;
20705;SDS011;10514;49.468;11.044;2022-12-26T16:45:24;2.65;;;1.33;;
20705;SDS011;10514;49.468;11.044;2022-12-26T16:47:50;3.30;;;1.40;;
20705;SDS011;10514;49.468;11.044;2022-12-26T16:50:21;2.10;;;1.23;;
20705;SDS011;10514;49.468;11.044;2022-12-26T16:52:49;2.07;;;1.20;;
20705;SDS011;10514;49.468;11.044;2022-12-26T16:57:51;1.57;;;1.30;;
20705;SDS011;10514;49.468;11.044;2022-12-26T17:00:19;2.53;;;1.52;;
20705;SDS011;10514;49.468;11.044;2022-12-26T17:02:46;2.08;;;1.48;;
20705;SDS011;10514;49.468;11.044;2022-12-26T17:05:16;4.18;;;1.90;;
20705;SDS011;10514;49.468;11.044;2022-12-26T17:07:45;4.10;;;1.87;;
20705;SDS011;10514;49.468;11.044;2022-12-26T17:10:26;3.15;;;1.90;;
20705;SDS011;10514;49.468;11.044;2022-12-26T17:12:53;4.53;;;2.00;;
20705;SDS011;10514;49.468;11.044;2022-12-26T17:15:22;6.67;;;2.23;;
20705;SDS011;10514;49.468;11.044;2022-12-26T17:17:49;10.68;;;2.83;;
20705;SDS011;10514;49.468;11.044;2022-12-26T17:22:50;3.87;;;1.90;;
20705;SDS011;10514;49.468;11.044;2022-12-26T17:25:29;2.40;;;1.75;;
20705;SDS011;10514;49.468;11.044;2022-12-26T17:30:33;2.23;;;1.33;;
20705;SDS011;10514;49.468;11.044;2022-12-26T17:33:01;2.63;;;1.63;;
20705;SDS011;10514;49.468;11.044;2022-12-26T17:35:33;5.23;;;2.07;;
20705;SDS011;10514;49.468;11.044;2022-12-26T17:38:00;1.70;;;1.30;;
20705;SDS011;10514;49.468;11.044;2022-12-26T17:40:29;3.67;;;1.47;;